GJR weather

Gjögur Airport
Gjögur, Westfjords, Iceland

Public forecast

Using degrees Celsius for public forecast. Weather courtesy of forecast.io.

Closest aviation weather report (METAR) to Gjögur Airport

Closest report is Ísafjörður Airport, 44.3 nm (82.0 km) W. Retrieved 2019/10/18 10:12 UTC (32 minutes ago):

BIIS 181012Z VRB03KT 9999 FEW030 01/M03 Q1019

Closest aviation forecast (TAF) to Gjögur Airport

Closest forecast is Akureyri Airport, 82.5 nm (152.8 km) ESE. Retrieved 2019/10/18 09:33 UTC (1 hour ago):

TAF TAF BIAR 180729Z 1809/1909 17005KT 9999 SCT035 TX03/1815Z TNM03/1903Z BECMG 1809/1811 CAVOK